Time;durP1;ratioP1;P1;durP2;ratioP2;P2;SDS_P1;SDS_P2;PMS_P1;PMS_P2;Temp;Humidity;BMP_temperature;BMP_pressure;BME280_temperature;BME280_humidity;BME280_pressure;Samples;Min_cycle;Max_cycle;Signal;HPM_P1;HPM_P2
2023/12/11 00:02:46;;;;;;;14.83;8.27;;;5.10;99.90;;;;;;10408760;28;20677;-79
2023/12/11 00:07:50;;;;;;;12.77;7.03;;;5.10;99.90;;;;;;10414806;28;20228;-79
2023/12/11 00:12:52;;;;;;;19.63;8.00;;;5.20;99.90;;;;;;10414753;28;20621;-79
2023/12/11 00:17:55;;;;;;;19.83;7.97;;;5.20;99.90;;;;;;10414733;28;20246;-79
2023/12/11 00:22:58;;;;;;;13.60;7.10;;;5.20;99.90;;;;;;10413803;28;20318;-79
2023/12/11 00:28:00;;;;;;;19.50;7.83;;;5.30;99.90;;;;;;10413599;28;20227;-79
2023/12/11 00:33:03;;;;;;;16.30;7.67;;;5.20;99.90;;;;;;10413866;28;20235;-79
2023/12/11 00:38:06;;;;;;;22.27;8.70;;;5.20;99.90;;;;;;10413259;28;20235;-79
2023/12/11 00:43:08;;;;;;;13.47;6.23;;;5.30;99.90;;;;;;10413337;28;20269;-79
2023/12/11 00:48:11;;;;;;;15.43;7.50;;;5.20;99.90;;;;;;10413248;28;20637;-79
2023/12/11 00:53:14;;;;;;;15.47;7.27;;;5.10;99.90;;;;;;10413193;28;20654;-79
2023/12/11 00:58:16;;;;;;;16.17;6.97;;;5.10;99.90;;;;;;10413413;28;20281;-79
2023/12/11 01:03:19;;;;;;;20.47;7.17;;;5.20;99.90;;;;;;10412609;28;20251;-79
2023/12/11 01:08:22;;;;;;;17.50;7.63;;;5.20;99.90;;;;;;10412550;28;20225;-78
2023/12/11 01:13:25;;;;;;;17.03;7.00;;;5.10;99.90;;;;;;10412836;28;20239;-79
2023/12/11 01:18:28;;;;;;;11.60;6.17;;;5.10;99.90;;;;;;10412178;28;20231;-79
2023/12/11 01:23:31;;;;;;;16.83;6.83;;;5.00;99.90;;;;;;10411339;28;20318;-79
2023/12/11 01:28:34;;;;;;;15.97;7.10;;;5.00;99.90;;;;;;10412239;28;20250;-79
2023/12/11 01:33:36;;;;;;;19.97;8.03;;;5.00;99.90;;;;;;10410721;28;20216;-79
2023/12/11 01:38:39;;;;;;;19.90;7.50;;;5.00;99.90;;;;;;10410858;28;20227;-80
2023/12/11 01:43:51;;;;;;;18.20;7.50;;;5.00;99.90;;;;;;10411336;28;20273;-79
2023/12/11 01:48:54;;;;;;;15.37;6.53;;;5.00;99.90;;;;;;10393961;28;20255;-80
2023/12/11 01:53:57;;;;;;;20.47;7.20;;;5.00;99.90;;;;;;10368957;28;20679;-79
2023/12/11 01:59:00;;;;;;;11.70;5.80;;;5.10;99.90;;;;;;10369634;28;20236;-79
2023/12/11 02:04:02;;;;;;;14.53;5.43;;;5.00;99.90;;;;;;10372383;28;20259;-79
2023/12/11 02:09:05;;;;;;;12.30;7.30;;;5.00;99.90;;;;;;10410138;28;20234;-79
2023/12/11 02:14:08;;;;;;;11.57;5.30;;;5.00;99.90;;;;;;10410407;28;20384;-79
2023/12/11 02:19:10;;;;;;;14.63;5.83;;;5.00;99.90;;;;;;10409395;28;20664;-79
2023/12/11 02:24:21;;;;;;;16.23;6.83;;;5.10;99.90;;;;;;10409185;28;20637;-79
2023/12/11 02:29:24;;;;;;;16.30;6.03;;;5.10;99.90;;;;;;10392418;28;20676;-79
2023/12/11 02:34:27;;;;;;;17.60;6.27;;;5.10;99.90;;;;;;10374065;28;20295;-79
2023/12/11 02:39:29;;;;;;;12.37;6.00;;;5.20;99.90;;;;;;10408737;28;20239;-79
2023/12/11 02:44:32;;;;;;;16.53;5.50;;;5.10;99.90;;;;;;10408929;28;20285;-79
2023/12/11 02:49:35;;;;;;;17.57;6.03;;;5.10;99.90;;;;;;10408188;28;20281;-79
2023/12/11 02:54:38;;;;;;;9.77;5.07;;;5.10;99.90;;;;;;10407463;28;20301;-78
2023/12/11 02:59:40;;;;;;;14.63;4.40;;;5.10;99.90;;;;;;10407234;28;20688;-79
2023/12/11 03:04:43;;;;;;;10.97;5.50;;;5.10;99.90;;;;;;10408521;28;20769;-79
2023/12/11 03:09:45;;;;;;;14.23;4.93;;;5.20;99.90;;;;;;10407977;28;20293;-79
2023/12/11 03:14:48;;;;;;;16.90;6.37;;;5.20;99.90;;;;;;10408172;28;20235;-79
2023/12/11 03:19:52;;;;;;;9.20;4.30;;;5.20;99.90;;;;;;10407944;28;20238;-80
2023/12/11 03:24:55;;;;;;;11.93;4.73;;;5.20;99.90;;;;;;10407430;28;20313;-79
2023/12/11 03:29:57;;;;;;;10.23;4.23;;;5.20;99.90;;;;;;10406514;28;20235;-79
2023/12/11 03:35:00;;;;;;;10.43;3.70;;;5.30;99.90;;;;;;10407532;28;20282;-79
2023/12/11 03:40:03;;;;;;;11.20;4.63;;;5.30;99.90;;;;;;10412014;28;20268;-80
2023/12/11 03:45:06;;;;;;;11.20;4.87;;;5.30;99.90;;;;;;10415255;28;20282;-79
2023/12/11 03:50:09;;;;;;;7.17;4.07;;;5.30;99.90;;;;;;10414909;28;20838;-79
2023/12/11 03:55:12;;;;;;;11.27;4.93;;;5.20;99.90;;;;;;10415131;28;20297;-79
2023/12/11 04:00:15;;;;;;;14.37;5.60;;;5.30;99.90;;;;;;10414955;28;20231;-78
2023/12/11 04:05:17;;;;;;;10.47;6.53;;;5.40;99.90;;;;;;10414967;28;20250;-78
2023/12/11 04:10:20;;;;;;;11.93;6.37;;;5.40;99.90;;;;;;10414330;28;20675;-79
2023/12/11 04:15:22;;;;;;;10.00;6.43;;;5.40;99.90;;;;;;10413359;28;20254;-79
2023/12/11 04:20:25;;;;;;;13.37;6.57;;;5.30;99.90;;;;;;10413778;28;20236;-79
2023/12/11 04:25:27;;;;;;;18.57;8.97;;;5.50;99.90;;;;;;10413999;28;20271;-79
2023/12/11 04:30:30;;;;;;;11.77;7.20;;;5.40;99.90;;;;;;10414126;28;20204;-79
2023/12/11 04:35:33;;;;;;;8.07;5.93;;;5.30;99.90;;;;;;10413346;28;20233;-79
2023/12/11 04:40:35;;;;;;;12.27;5.17;;;5.30;99.90;;;;;;10413495;28;20640;-79
2023/12/11 04:45:38;;;;;;;15.53;6.03;;;5.40;99.90;;;;;;10413422;28;20231;-79
2023/12/11 04:50:40;;;;;;;9.97;5.00;;;5.40;99.90;;;;;;10411846;28;20227;-78
2023/12/11 04:55:43;;;;;;;8.50;5.13;;;5.30;99.90;;;;;;10412908;28;20254;-79
2023/12/11 05:00:46;;;;;;;11.37;5.37;;;5.50;99.90;;;;;;10392248;28;20223;-80
2023/12/11 05:05:48;;;;;;;11.37;5.30;;;5.40;99.90;;;;;;10376206;28;20684;-79
2023/12/11 05:10:51;;;;;;;14.63;5.70;;;5.50;99.90;;;;;;10397875;28;20655;-80
2023/12/11 05:15:56;;;;;;;10.07;5.27;;;5.60;99.90;;;;;;10381256;28;20223;-80
2023/12/11 05:21:08;;;;;;;9.60;5.30;;;5.60;99.90;;;;;;10382130;28;20223;-80
2023/12/11 05:26:17;;;;;;;10.80;6.20;;;5.60;99.90;;;;;;10412356;28;20266;-81
2023/12/11 05:31:21;;;;;;;11.60;6.23;;;5.60;99.90;;;;;;10411537;28;20227;-80
2023/12/11 05:36:23;;;;;;;9.80;5.03;;;5.70;99.90;;;;;;10411249;28;20294;-80
2023/12/11 05:41:26;;;;;;;14.43;6.20;;;5.70;99.90;;;;;;10410260;28;20264;-79
2023/12/11 05:46:28;;;;;;;8.60;4.07;;;5.80;99.90;;;;;;10410746;28;20309;-80
2023/12/11 05:51:31;;;;;;;10.43;5.97;;;5.80;99.90;;;;;;10409701;28;20243;-80
2023/12/11 05:56:34;;;;;;;10.93;6.67;;;5.70;99.90;;;;;;10410234;28;20681;-79
2023/12/11 06:01:36;;;;;;;9.27;6.23;;;5.70;99.90;;;;;;10409544;28;20321;-80
2023/12/11 06:06:39;;;;;;;16.37;9.17;;;5.80;99.90;;;;;;10409421;28;20289;-80
2023/12/11 06:11:42;;;;;;;14.50;6.33;;;5.80;99.90;;;;;;10409800;28;20297;-80
2023/12/11 06:16:44;;;;;;;15.13;7.27;;;5.90;99.90;;;;;;10407627;28;20256;-80
2023/12/11 06:21:47;;;;;;;11.77;7.20;;;6.40;99.90;;;;;;10408703;28;20248;-80
2023/12/11 06:26:49;;;;;;;13.93;7.37;;;6.70;99.90;;;;;;10409004;28;20227;-80
2023/12/11 06:31:52;;;;;;;15.00;6.03;;;6.80;99.90;;;;;;10407657;28;20234;-80
2023/12/11 06:36:54;;;;;;;12.80;6.43;;;7.10;99.90;;;;;;10408781;28;20236;-80
2023/12/11 06:41:57;;;;;;;9.70;5.73;;;7.20;99.90;;;;;;10406971;28;20710;-79
2023/12/11 06:47:01;;;;;;;10.87;6.13;;;7.50;99.90;;;;;;10383154;28;20325;-80
2023/12/11 06:52:04;;;;;;;11.97;5.97;;;7.40;99.90;;;;;;10366776;28;20246;-79
2023/12/11 06:57:07;;;;;;;12.03;6.03;;;7.60;99.90;;;;;;10388259;28;20238;-80
2023/12/11 07:02:10;;;;;;;10.10;5.63;;;7.50;99.90;;;;;;10407951;28;20264;-80
2023/12/11 07:07:14;;;;;;;8.87;5.17;;;7.10;99.90;;;;;;10407391;28;20238;-79
2023/12/11 07:12:17;;;;;;;10.93;6.13;;;7.10;99.90;;;;;;10407212;28;20300;-79
2023/12/11 07:17:20;;;;;;;17.33;7.10;;;7.60;99.90;;;;;;10404702;28;20236;-79
2023/12/11 07:22:24;;;;;;;12.03;7.20;;;7.80;99.90;;;;;;10406355;28;20248;-79
2023/12/11 07:27:26;;;;;;;9.70;6.40;;;7.90;99.90;;;;;;10407547;28;20238;-79
2023/12/11 07:32:29;;;;;;;12.70;6.17;;;8.10;99.90;;;;;;10406087;28;20270;-80
2023/12/11 07:37:32;;;;;;;11.63;6.30;;;8.30;99.90;;;;;;10406943;28;20243;-79
2023/12/11 07:42:34;;;;;;;16.20;5.23;;;8.50;99.90;;;;;;10406708;28;20243;-79
2023/12/11 07:47:37;;;;;;;13.27;6.43;;;8.70;99.90;;;;;;10407117;28;20261;-81
2023/12/11 07:52:41;;;;;;;12.07;7.03;;;9.10;99.90;;;;;;10407131;28;20238;-80
2023/12/11 07:57:43;;;;;;;13.33;7.27;;;9.10;99.90;;;;;;10407563;28;20260;-80
2023/12/11 08:02:46;;;;;;;11.17;5.17;;;9.10;99.90;;;;;;10407180;28;20292;-80
2023/12/11 08:07:48;;;;;;;6.73;4.27;;;8.80;99.90;;;;;;10406999;28;20231;-81
2023/12/11 08:12:51;;;;;;;5.43;3.50;;;8.90;99.90;;;;;;10406872;28;20241;-80
2023/12/11 08:17:54;;;;;;;12.13;4.80;;;9.40;99.90;;;;;;10406986;28;20301;-80
2023/12/11 08:22:57;;;;;;;10.87;6.03;;;9.50;99.90;;;;;;10406987;28;20247;-80
2023/12/11 08:27:59;;;;;;;15.40;5.73;;;9.80;99.90;;;;;;10413078;28;20290;-80
2023/12/11 08:33:02;;;;;;;15.63;7.83;;;10.00;99.90;;;;;;10413808;28;20237;-81
2023/12/11 08:38:04;;;;;;;7.73;5.43;;;10.00;99.90;;;;;;10412434;28;20243;-81
2023/12/11 08:43:07;;;;;;;9.47;4.53;;;10.00;99.90;;;;;;10412571;28;20270;-80
2023/12/11 08:48:10;;;;;;;13.43;5.23;;;10.00;99.90;;;;;;10413116;28;20255;-80
2023/12/11 08:53:12;;;;;;;6.97;4.73;;;10.10;99.90;;;;;;10396009;28;20638;-81
2023/12/11 08:58:15;;;;;;;8.27;4.10;;;10.20;99.90;;;;;;10411754;28;20242;-81
2023/12/11 09:03:18;;;;;;;12.93;4.47;;;10.50;99.90;;;;;;10412819;28;20292;-81
2023/12/11 09:08:20;;;;;;;11.60;5.83;;;10.40;99.90;;;;;;10411588;28;20239;-80
2023/12/11 09:13:23;;;;;;;10.40;4.27;;;10.20;99.90;;;;;;10412538;28;20235;-81
2023/12/11 09:18:30;;;;;;;9.03;4.43;;;10.20;99.90;;;;;;10412492;28;20242;-80
2023/12/11 09:23:33;;;;;;;19.03;6.00;;;10.50;99.90;;;;;;10412056;28;20251;-79
2023/12/11 09:28:37;;;;;;;15.17;3.50;;;10.70;99.90;;;;;;10409921;28;20257;-79
2023/12/11 09:33:53;;;;;;;13.33;5.50;;;11.10;99.90;;;;;;10409368;28;20250;-79
2023/12/11 09:38:58;;;;;;;11.90;5.27;;;11.40;99.90;;;;;;10389521;28;20696;-79
2023/12/11 09:44:01;;;;;;;11.70;4.40;;;11.80;99.90;;;;;;10410248;28;20311;-79
2023/12/11 09:49:04;;;;;;;7.03;3.40;;;12.10;99.90;;;;;;10369133;28;20313;-79
2023/12/11 09:54:08;;;;;;;9.73;4.60;;;12.30;99.90;;;;;;10404263;28;20696;-79
2023/12/11 09:59:11;;;;;;;10.93;5.43;;;12.10;99.90;;;;;;10409522;28;20289;-79
2023/12/11 10:04:14;;;;;;;10.23;4.33;;;12.70;99.90;;;;;;10056133;28;10000517;-79
2023/12/11 10:09:31;;;;;;;10.60;4.57;;;12.50;99.90;;;;;;10365104;28;20320;-79
2023/12/11 10:14:37;;;;;;;14.87;4.80;;;12.00;99.90;;;;;;10390406;28;20280;-79
2023/12/11 10:19:40;;;;;;;8.27;3.37;;;11.80;99.90;;;;;;10406246;28;20320;-79
2023/12/11 10:24:42;;;;;;;7.43;3.40;;;11.50;99.90;;;;;;10404937;28;20683;-79
2023/12/11 10:29:45;;;;;;;6.83;3.90;;;12.00;99.90;;;;;;10406365;28;20227;-79
2023/12/11 10:34:50;;;;;;;11.50;4.93;;;12.10;99.90;;;;;;10404830;28;20238;-79
2023/12/11 10:39:56;;;;;;;22.07;7.17;;;11.70;99.90;;;;;;10404093;28;20238;-79
2023/12/11 10:44:59;;;;;;;19.70;7.97;;;12.00;99.90;;;;;;10376899;28;20273;-78
2023/12/11 10:50:02;;;;;;;16.70;7.17;;;10.90;99.90;;;;;;10403738;28;20281;-78
2023/12/11 10:55:05;;;;;;;14.37;6.83;;;10.20;99.90;;;;;;10403802;28;20305;-80
2023/12/11 11:00:13;;;;;;;9.83;5.30;;;10.30;99.90;;;;;;10405737;28;20699;-80
2023/12/11 11:05:16;;;;;;;10.70;5.20;;;9.10;99.90;;;;;;10393076;28;20321;-79
2023/12/11 11:10:21;;;;;;;20.43;6.87;;;8.50;99.90;;;;;;10407139;28;20686;-79
2023/12/11 11:15:24;;;;;;;14.03;6.90;;;8.20;99.90;;;;;;10406899;28;20616;-79
2023/12/11 11:20:28;;;;;;;58.27;13.67;;;8.20;99.90;;;;;;10407390;28;20290;-80
2023/12/11 11:25:32;;;;;;;45.10;11.43;;;8.90;99.90;;;;;;10406051;28;20256;-79
2023/12/11 11:30:44;;;;;;;31.53;9.87;;;9.90;99.90;;;;;;10407206;28;20233;-79
2023/12/11 11:35:52;;;;;;;26.50;7.40;;;10.00;99.90;;;;;;10406808;28;20771;-79
2023/12/11 11:40:55;;;;;;;33.70;10.67;;;10.70;99.90;;;;;;10407021;28;20231;-80
2023/12/11 11:45:58;;;;;;;38.47;9.07;;;11.70;99.90;;;;;;10406991;28;20285;-79
2023/12/11 11:51:00;;;;;;;26.83;8.53;;;12.20;99.90;;;;;;10405833;28;20763;-79
2023/12/11 11:56:03;;;;;;;31.47;8.67;;;12.30;99.90;;;;;;10406168;28;20207;-79
2023/12/11 12:01:06;;;;;;;36.93;7.40;;;11.60;99.90;;;;;;10410565;28;20239;-79
2023/12/11 12:06:10;;;;;;;37.70;8.57;;;12.10;99.90;;;;;;10413487;28;20255;-79
2023/12/11 12:11:15;;;;;;;22.07;7.83;;;12.40;99.90;;;;;;10413042;28;20239;-79
2023/12/11 12:16:28;;;;;;;18.27;4.13;;;12.10;99.90;;;;;;10394366;28;20670;-79
2023/12/11 12:21:32;;;;;;;23.20;7.80;;;12.40;99.90;;;;;;10413608;28;20251;-79
2023/12/11 12:26:35;;;;;;;15.27;5.30;;;12.20;99.90;;;;;;10396465;28;20258;-79
2023/12/11 12:31:39;;;;;;;19.97;6.37;;;12.70;99.90;;;;;;10412617;28;20298;-79
2023/12/11 12:36:43;;;;;;;28.43;7.87;;;13.50;99.90;;;;;;10413957;28;20293;-80
2023/12/11 12:41:50;;;;;;;23.63;7.20;;;13.50;99.90;;;;;;10412310;28;20265;-80
2023/12/11 12:47:03;;;;;;;17.70;5.63;;;13.80;99.90;;;;;;10400504;28;20267;-79
2023/12/11 12:52:05;;;;;;;23.80;6.33;;;13.90;99.90;;;;;;10389681;28;20273;-79
2023/12/11 12:57:08;;;;;;;23.97;6.37;;;13.70;99.90;;;;;;10411258;28;20235;-79
2023/12/11 13:02:15;;;;;;;19.33;6.53;;;14.00;99.90;;;;;;10412722;28;20235;-80
2023/12/11 13:07:20;;;;;;;12.10;5.40;;;13.90;99.90;;;;;;10412035;28;20247;-80
2023/12/11 13:12:25;;;;;;;17.60;7.83;;;13.40;99.90;;;;;;10408432;28;20220;-79
2023/12/11 13:17:27;;;;;;;18.43;5.50;;;13.50;99.90;;;;;;10404016;28;20228;-79
2023/12/11 13:22:30;;;;;;;17.07;5.40;;;13.50;99.90;;;;;;10402642;28;20240;-79
2023/12/11 13:27:32;;;;;;;20.83;6.60;;;13.10;99.90;;;;;;10410948;28;20243;-79
2023/12/11 13:32:35;;;;;;;17.33;6.63;;;12.60;99.90;;;;;;10410763;28;20227;-79
2023/12/11 13:37:37;;;;;;;20.90;7.07;;;12.80;99.90;;;;;;10410721;28;20301;-79
2023/12/11 13:42:40;;;;;;;22.77;6.17;;;12.10;99.90;;;;;;10405883;28;20676;-79
2023/12/11 13:47:43;;;;;;;16.13;5.87;;;12.20;99.90;;;;;;10389981;28;20268;-79
2023/12/11 13:52:45;;;;;;;19.57;6.37;;;12.00;99.90;;;;;;10369074;28;20741;-80
2023/12/11 13:57:48;;;;;;;14.63;5.73;;;12.10;99.90;;;;;;10407287;28;20219;-80
2023/12/11 14:02:50;;;;;;;14.77;5.37;;;11.90;99.90;;;;;;10408336;28;20231;-79
2023/12/11 14:08:05;;;;;;;14.17;5.63;;;11.60;99.90;;;;;;10369097;28;20231;-79
2023/12/11 14:13:12;;;;;;;17.90;7.13;;;11.40;99.90;;;;;;10368372;28;20235;-79
2023/12/11 14:18:15;;;;;;;17.63;7.40;;;11.50;99.90;;;;;;10368198;28;20270;-79
2023/12/11 14:23:18;;;;;;;21.90;8.80;;;11.40;99.90;;;;;;10405835;28;20262;-80
2023/12/11 14:28:20;;;;;;;20.80;8.37;;;11.00;99.90;;;;;;10407482;28;20219;-79
2023/12/11 14:33:23;;;;;;;16.63;8.23;;;10.70;99.90;;;;;;10407746;28;20253;-79
2023/12/11 14:38:26;;;;;;;14.57;7.10;;;10.30;99.90;;;;;;10407080;28;20247;-79
2023/12/11 14:43:28;;;;;;;25.17;11.07;;;10.80;99.90;;;;;;10408161;28;20789;-79
2023/12/11 14:48:31;;;;;;;11.60;4.97;;;10.60;99.90;;;;;;10406766;28;20259;-80
2023/12/11 14:53:35;;;;;;;21.60;9.67;;;10.70;99.90;;;;;;10376427;28;20595;-80
2023/12/11 14:58:38;;;;;;;14.07;6.03;;;10.70;99.90;;;;;;10394109;28;20682;-80
2023/12/11 15:03:41;;;;;;;12.17;6.63;;;10.60;99.90;;;;;;10388419;28;20310;-80
2023/12/11 15:08:44;;;;;;;13.03;4.60;;;10.60;99.90;;;;;;10375980;28;20231;-81
2023/12/11 15:13:47;;;;;;;23.47;7.10;;;10.40;99.90;;;;;;10406248;28;20281;-80
2023/12/11 15:18:49;;;;;;;15.37;8.67;;;10.50;99.90;;;;;;10393353;28;20949;-80
2023/12/11 15:23:52;;;;;;;12.77;5.83;;;10.30;99.90;;;;;;10365513;28;20652;-81
2023/12/11 15:28:55;;;;;;;11.13;6.33;;;10.70;99.90;;;;;;10364847;28;20763;-80
2023/12/11 15:33:57;;;;;;;10.77;4.67;;;11.00;99.90;;;;;;10392218;28;20231;-80
2023/12/11 15:39:00;;;;;;;14.07;5.80;;;11.00;99.90;;;;;;10414505;28;20289;-80
2023/12/11 15:44:04;;;;;;;8.20;4.73;;;11.60;99.90;;;;;;10412175;28;20332;-80
2023/12/11 15:49:06;;;;;;;6.23;3.60;;;11.60;99.90;;;;;;10414516;28;20798;-80
2023/12/11 15:54:09;;;;;;;11.67;6.00;;;10.90;99.90;;;;;;10414233;28;20625;-79
2023/12/11 15:59:12;;;;;;;16.27;8.90;;;10.70;99.90;;;;;;10414202;28;20235;-79
2023/12/11 16:04:14;;;;;;;21.87;12.77;;;10.20;99.90;;;;;;10413323;28;20687;-79
2023/12/11 16:09:17;;;;;;;28.33;13.37;;;9.50;99.90;;;;;;10414023;28;20231;-80
2023/12/11 16:14:20;;;;;;;27.27;14.50;;;9.00;99.90;;;;;;10409182;28;20223;-80
2023/12/11 16:19:23;;;;;;;20.53;11.03;;;8.70;99.90;;;;;;10413553;28;20645;-81
2023/12/11 16:24:25;;;;;;;29.37;15.43;;;8.80;99.90;;;;;;10413863;28;20253;-80
2023/12/11 16:29:28;;;;;;;32.13;18.20;;;8.80;99.90;;;;;;10413815;28;20286;-80
2023/12/11 16:34:32;;;;;;;26.37;12.70;;;8.70;99.90;;;;;;10413478;28;20239;-80
2023/12/11 16:39:35;;;;;;;35.30;17.33;;;9.10;99.90;;;;;;10412374;28;20307;-80
2023/12/11 16:44:37;;;;;;;28.23;14.97;;;8.90;99.90;;;;;;10411927;28;20693;-81
2023/12/11 16:49:40;;;;;;;32.90;16.53;;;8.80;99.90;;;;;;10412655;28;20315;-80
2023/12/11 16:54:57;;;;;;;28.73;15.70;;;8.70;99.90;;;;;;10412930;28;20371;-80
2023/12/11 16:59:59;;;;;;;28.10;14.23;;;8.70;99.90;;;;;;10392427;28;20235;-80
2023/12/11 17:05:04;;;;;;;5.30;2.73;;;8.90;99.90;;;;;;10401068;28;20328;-81
2023/12/11 17:10:07;;;;;;;31.63;16.10;;;9.00;99.90;;;;;;10338437;28;20235;-81
2023/12/11 17:15:10;;;;;;;27.63;16.47;;;9.50;99.90;;;;;;10349874;28;20228;-81
2023/12/11 17:20:12;;;;;;;27.40;17.10;;;9.20;99.90;;;;;;10368706;28;20235;-80
2023/12/11 17:25:15;;;;;;;32.90;20.07;;;8.70;99.90;;;;;;10367972;28;20260;-81
2023/12/11 17:30:18;;;;;;;30.03;20.43;;;8.60;99.90;;;;;;10343829;28;20297;-81
2023/12/11 17:35:21;;;;;;;32.53;19.37;;;8.40;99.90;;;;;;10338910;28;20263;-81
2023/12/11 17:40:24;;;;;;;45.87;23.90;;;8.30;99.90;;;;;;10338235;28;20645;-80
2023/12/11 17:45:26;;;;;;;67.50;30.33;;;8.20;99.90;;;;;;10329969;28;20256;-80
2023/12/11 17:50:29;;;;;;;52.70;24.60;;;7.90;99.90;;;;;;10349273;28;20302;-81
2023/12/11 17:55:32;;;;;;;28.87;18.90;;;7.90;99.90;;;;;;10367317;28;20688;-81
2023/12/11 18:00:35;;;;;;;38.57;21.20;;;8.00;99.90;;;;;;10361643;28;20263;-81
2023/12/11 18:05:38;;;;;;;42.03;17.63;;;8.00;99.90;;;;;;10366226;28;20252;-80
2023/12/11 18:10:40;;;;;;;49.47;23.10;;;8.10;99.90;;;;;;10390504;28;20601;-80
2023/12/11 18:15:43;;;;;;;24.23;14.53;;;8.20;99.90;;;;;;10346572;28;20287;-80
2023/12/11 18:20:45;;;;;;;35.13;20.67;;;8.50;99.90;;;;;;10372745;28;20282;-80
2023/12/11 18:25:48;;;;;;;37.90;20.50;;;8.80;99.90;;;;;;10381124;28;20308;-80
2023/12/11 18:30:50;;;;;;;22.03;10.87;;;8.60;99.90;;;;;;10388164;28;20583;-80
2023/12/11 18:35:55;;;;;;;39.57;22.30;;;8.80;99.90;;;;;;10015100;28;10000008;-80
2023/12/11 18:40:58;;;;;;;32.80;19.70;;;9.10;99.90;;;;;;10335471;28;20755;-81
2023/12/11 18:46:00;;;;;;;33.90;22.30;;;9.00;99.90;;;;;;10361994;28;20678;-81
2023/12/11 18:51:03;;;;;;;41.87;21.10;;;8.70;99.90;;;;;;10390164;28;20312;-80
2023/12/11 18:56:06;;;;;;;43.37;22.03;;;8.40;99.90;;;;;;10367323;28;20244;-81
2023/12/11 19:01:10;;;;;;;51.13;25.13;;;8.00;99.90;;;;;;10350483;28;20923;-81
2023/12/11 19:06:13;;;;;;;40.80;22.83;;;7.90;99.90;;;;;;10366202;28;20275;-81
2023/12/11 19:11:15;;;;;;;40.50;23.20;;;7.80;99.90;;;;;;10377796;28;20234;-80
2023/12/11 19:16:18;;;;;;;50.83;28.63;;;7.60;99.90;;;;;;10362105;28;20237;-81
2023/12/11 19:21:22;;;;;;;52.30;28.23;;;7.80;99.90;;;;;;10343409;28;20699;-81
2023/12/11 19:26:25;;;;;;;48.53;30.40;;;7.70;99.90;;;;;;10374106;28;20666;-81
2023/12/11 19:31:27;;;;;;;48.47;26.80;;;7.60;99.90;;;;;;10369062;28;20281;-81
2023/12/11 19:36:30;;;;;;;41.83;25.40;;;7.50;99.90;;;;;;10369427;28;20235;-81
2023/12/11 19:41:33;;;;;;;47.37;26.33;;;7.40;99.90;;;;;;10365233;28;20273;-81
2023/12/11 19:46:41;;;;;;;48.47;30.13;;;7.50;99.90;;;;;;10340407;28;20721;-81
2023/12/11 19:51:44;;;;;;;42.13;26.20;;;7.40;99.90;;;;;;10343963;28;20286;-81
2023/12/11 19:56:47;;;;;;;50.57;28.77;;;7.40;99.90;;;;;;10342853;28;20643;-81
2023/12/11 20:01:50;;;;;;;47.43;28.13;;;7.40;99.90;;;;;;10367830;28;20228;-81
2023/12/11 20:06:55;;;;;;;54.17;29.83;;;7.40;99.90;;;;;;10340790;28;20258;-81
2023/12/11 20:11:58;;;;;;;30.03;16.23;;;7.20;99.90;;;;;;10325720;28;20252;-81
2023/12/11 20:17:17;;;;;;;48.90;29.27;;;7.40;99.90;;;;;;10336442;28;20227;-81
2023/12/11 20:22:21;;;;;;;47.40;28.13;;;7.40;99.90;;;;;;10345864;28;20991;-81
2023/12/11 20:27:23;;;;;;;38.53;22.00;;;7.50;99.90;;;;;;10398745;28;20323;-81
2023/12/11 20:32:26;;;;;;;32.40;20.67;;;7.60;99.90;;;;;;10336681;28;20248;-81
2023/12/11 20:37:28;;;;;;;23.60;14.37;;;7.80;99.90;;;;;;10357790;28;20235;-80
2023/12/11 20:42:31;;;;;;;31.00;20.20;;;8.00;99.90;;;;;;10371907;28;20267;-80
2023/12/11 20:47:34;;;;;;;44.17;25.10;;;8.00;99.90;;;;;;10344996;28;20652;-81
2023/12/11 20:52:41;;;;;;;40.17;24.53;;;7.70;99.90;;;;;;10370314;28;20682;-81
2023/12/11 20:57:43;;;;;;;51.70;25.63;;;7.40;99.90;;;;;;10354129;28;20698;-80
2023/12/11 21:02:46;;;;;;;45.07;25.50;;;7.20;99.90;;;;;;10359582;28;20243;-80
2023/12/11 21:07:50;;;;;;;44.07;23.47;;;6.90;99.90;;;;;;10336733;28;20244;-81
2023/12/11 21:12:52;;;;;;;30.47;14.77;;;6.90;99.90;;;;;;10343206;28;20243;-81
2023/12/11 21:17:55;;;;;;;51.00;27.87;;;7.40;99.90;;;;;;10383219;28;20286;-81
2023/12/11 21:23:01;;;;;;;41.77;26.97;;;7.70;99.90;;;;;;10353459;28;20282;-81
2023/12/11 21:28:03;;;;;;;39.97;25.70;;;7.50;99.90;;;;;;10370642;28;20304;-81
2023/12/11 21:33:06;;;;;;;33.57;19.97;;;7.70;99.90;;;;;;10369836;28;20230;-79
2023/12/11 21:38:08;;;;;;;30.63;15.80;;;7.80;99.90;;;;;;10370324;28;20244;-81
2023/12/11 21:43:13;;;;;;;15.67;10.57;;;7.80;99.90;;;;;;10362915;28;20303;-81
2023/12/11 21:48:16;;;;;;;23.20;15.33;;;8.10;99.90;;;;;;10336234;28;20279;-80
2023/12/11 21:53:18;;;;;;;26.30;15.40;;;8.90;99.90;;;;;;10332894;28;20268;-80
2023/12/11 21:58:21;;;;;;;31.23;18.63;;;9.10;99.90;;;;;;10366022;28;20235;-81
2023/12/11 22:03:24;;;;;;;33.80;18.40;;;9.50;99.90;;;;;;10369673;28;20231;-81
2023/12/11 22:08:26;;;;;;;29.27;13.83;;;9.30;99.90;;;;;;10369649;28;20329;-81
2023/12/11 22:13:29;;;;;;;16.63;9.17;;;9.40;99.90;;;;;;10366059;28;20224;-81
2023/12/11 22:18:31;;;;;;;17.40;10.73;;;9.80;99.90;;;;;;10383996;28;20619;-81
2023/12/11 22:23:34;;;;;;;16.27;9.33;;;10.30;99.90;;;;;;10368923;28;20624;-80
2023/12/11 22:28:38;;;;;;;13.03;7.40;;;10.70;99.90;;;;;;10368498;28;20305;-81
2023/12/11 22:33:40;;;;;;;12.70;8.03;;;11.00;99.90;;;;;;10337081;28;20228;-80
2023/12/11 22:38:43;;;;;;;16.50;10.70;;;11.30;99.90;;;;;;10367569;28;20688;-81
2023/12/11 22:43:45;;;;;;;12.07;8.00;;;11.30;99.90;;;;;;10375784;28;20294;-80
2023/12/11 22:48:48;;;;;;;17.77;11.17;;;10.80;99.90;;;;;;10354498;28;20666;-80
2023/12/11 22:53:50;;;;;;;18.90;12.10;;;11.00;99.90;;;;;;10355313;28;20231;-80
2023/12/11 22:58:53;;;;;;;16.87;8.30;;;10.70;99.90;;;;;;10367078;28;20232;-80
2023/12/11 23:03:55;;;;;;;17.27;10.30;;;11.10;99.90;;;;;;10337178;28;20278;-80
2023/12/11 23:08:58;;;;;;;18.27;9.07;;;11.00;99.90;;;;;;10366020;28;20645;-81
2023/12/11 23:14:01;;;;;;;10.07;7.20;;;11.00;99.90;;;;;;10350246;28;20284;-81
2023/12/11 23:19:03;;;;;;;10.60;6.27;;;11.40;99.90;;;;;;10347744;28;20239;-80
2023/12/11 23:24:06;;;;;;;13.30;8.03;;;11.40;99.90;;;;;;10348150;28;20244;-80
2023/12/11 23:29:08;;;;;;;10.53;6.40;;;11.70;99.90;;;;;;10334529;28;20275;-80
2023/12/11 23:34:11;;;;;;;7.27;4.67;;;11.90;99.90;;;;;;10350432;28;20303;-80
2023/12/11 23:39:13;;;;;;;14.70;9.23;;;11.90;99.90;;;;;;10380893;28;20640;-80
2023/12/11 23:44:16;;;;;;;15.27;7.40;;;11.80;99.90;;;;;;10354021;28;20808;-81
2023/12/11 23:49:19;;;;;;;10.40;6.07;;;11.80;99.90;;;;;;10349344;28;20317;-81
2023/12/11 23:54:21;;;;;;;11.53;7.17;;;11.80;99.90;;;;;;10359901;28;20244;-81
2023/12/11 23:59:24;;;;;;;11.83;7.07;;;11.90;99.90;;;;;;10356208;28;20267;-81
